Forside
METAR-TAF:

METAR-TAF

Lufthavne :

Slesvig-Jagel, Tyskland

Breddekreds: 54-28N, længdekreds: 009-31E, højde: 22 m

Aktuelle vejr

Denne rapport blev lavet for 1 time og 2 minutter siden, kl. 19:20 UTC
Vind 29 kt fra vest med vindstød på up til 46 kt
Temperatur 7°C
Fugtighed 70%
Tryk 1008 hPa
Sigt: 9000 m

METAR: ETNS 221920Z AUTO 26029G46KT 9000 // ////// 07/02 Q1008 ///

Tid: 21:22 (20:22 UTC)


TAF: fraværende

Vejrobservationer og prognoser fra mere end 4000 lufthavne (METAR og TAF).

De gule og røde prikker repræsenterer de meteorologiske stationer.

Flyt musen over at se navnet på stationen.

Så klik over at se vejr observationer og prognoser.

At skifte det kort: Klik på de grønne knapper med et sort kors for at zoome ind; på den grønne knap med en bindestreg for at zoome ud; eller på de grønne pile for tilstødende kort.


METAR-TAF: